sensor_id;sensor_type;location;lat;lon;timestamp;pressure;altitude;pressure_sealevel;temperature;humidity
10606;BME280;5350;42.698;23.148;2022-10-31T00:01:46;94117.97;;;14.28;64.57
10606;BME280;5350;42.698;23.148;2022-10-31T00:04:13;94121.91;;;14.30;64.73
10606;BME280;5350;42.698;23.148;2022-10-31T00:06:39;94114.84;;;14.26;64.91
10606;BME280;5350;42.698;23.148;2022-10-31T00:09:06;94119.03;;;14.27;64.81
10606;BME280;5350;42.698;23.148;2022-10-31T00:11:34;94122.78;;;14.26;65.20
10606;BME280;5350;42.698;23.148;2022-10-31T00:14:01;94121.66;;;14.27;65.06
10606;BME280;5350;42.698;23.148;2022-10-31T00:16:28;94125.50;;;14.21;64.99
10606;BME280;5350;42.698;23.148;2022-10-31T00:18:57;94122.88;;;14.21;65.71
10606;BME280;5350;42.698;23.148;2022-10-31T00:21:24;94121.13;;;14.16;65.81
10606;BME280;5350;42.698;23.148;2022-10-31T00:23:51;94121.00;;;14.21;65.83
10606;BME280;5350;42.698;23.148;2022-10-31T00:26:18;94117.31;;;14.09;66.28
10606;BME280;5350;42.698;23.148;2022-10-31T00:28:46;94110.75;;;14.20;66.18
10606;BME280;5350;42.698;23.148;2022-10-31T00:31:13;94106.44;;;14.10;66.68
10606;BME280;5350;42.698;23.148;2022-10-31T00:33:40;94070.09;;;13.80;67.21
10606;BME280;5350;42.698;23.148;2022-10-31T00:36:11;94118.22;;;14.04;67.48
10606;BME280;5350;42.698;23.148;2022-10-31T00:38:38;94112.09;;;13.95;67.56
10606;BME280;5350;42.698;23.148;2022-10-31T00:41:04;94117.84;;;13.97;68.03
10606;BME280;5350;42.698;23.148;2022-10-31T00:43:31;94114.91;;;13.99;68.26
10606;BME280;5350;42.698;23.148;2022-10-31T00:45:59;94118.13;;;13.96;68.35
10606;BME280;5350;42.698;23.148;2022-10-31T00:48:26;94115.63;;;13.91;69.05
10606;BME280;5350;42.698;23.148;2022-10-31T00:50:53;94114.03;;;13.90;69.12
10606;BME280;5350;42.698;23.148;2022-10-31T00:53:19;94114.91;;;13.85;69.23
10606;BME280;5350;42.698;23.148;2022-10-31T00:55:46;94111.72;;;13.75;69.79
10606;BME280;5350;42.698;23.148;2022-10-31T00:58:13;94111.38;;;13.90;70.00
10606;BME280;5350;42.698;23.148;2022-10-31T01:00:40;94112.97;;;13.77;70.33
10606;BME280;5350;42.698;23.148;2022-10-31T01:03:08;94114.75;;;13.82;70.29
10606;BME280;5350;42.698;23.148;2022-10-31T01:05:35;94118.28;;;13.63;71.20
10606;BME280;5350;42.698;23.148;2022-10-31T01:08:02;94116.03;;;13.71;71.80
10606;BME280;5350;42.698;23.148;2022-10-31T01:10:29;94122.00;;;13.62;72.15
10606;BME280;5350;42.698;23.148;2022-10-31T01:12:56;94115.06;;;13.53;72.57
10606;BME280;5350;42.698;23.148;2022-10-31T01:15:23;94110.84;;;13.52;72.99
10606;BME280;5350;42.698;23.148;2022-10-31T01:17:50;94123.69;;;13.58;73.23
10606;BME280;5350;42.698;23.148;2022-10-31T01:20:18;94124.28;;;13.55;73.26
10606;BME280;5350;42.698;23.148;2022-10-31T01:22:44;94120.25;;;13.44;73.93
10606;BME280;5350;42.698;23.148;2022-10-31T01:25:12;94124.28;;;13.55;74.31
10606;BME280;5350;42.698;23.148;2022-10-31T01:27:38;94123.19;;;13.43;75.10
10606;BME280;5350;42.698;23.148;2022-10-31T01:30:06;94122.69;;;13.54;75.11
10606;BME280;5350;42.698;23.148;2022-10-31T01:32:33;94124.06;;;13.66;74.48
10606;BME280;5350;42.698;23.148;2022-10-31T01:35:00;94121.59;;;13.69;74.19
10606;BME280;5350;42.698;23.148;2022-10-31T01:37:28;94126.91;;;13.69;74.18
10606;BME280;5350;42.698;23.148;2022-10-31T01:39:54;94122.66;;;13.82;74.00
10606;BME280;5350;42.698;23.148;2022-10-31T01:42:22;94108.88;;;13.85;73.51
10606;BME280;5350;42.698;23.148;2022-10-31T01:44:55;94114.53;;;13.92;73.57
10606;BME280;5350;42.698;23.148;2022-10-31T01:47:39;94114.41;;;13.97;73.19
10606;BME280;5350;42.698;23.148;2022-10-31T01:50:13;94117.72;;;14.02;73.17
10606;BME280;5350;42.698;23.148;2022-10-31T01:52:44;94093.41;;;13.78;73.66
10606;BME280;5350;42.698;23.148;2022-10-31T01:55:16;94112.75;;;14.01;73.55
10606;BME280;5350;42.698;23.148;2022-10-31T01:57:48;94105.00;;;14.04;73.31
10606;BME280;5350;42.698;23.148;2022-10-31T02:00:17;94102.81;;;14.20;73.14
10606;BME280;5350;42.698;23.148;2022-10-31T02:02:45;94095.44;;;14.17;73.19
10606;BME280;5350;42.698;23.148;2022-10-31T02:05:16;94112.66;;;14.28;72.83
10606;BME280;5350;42.698;23.148;2022-10-31T02:07:51;94103.06;;;14.32;72.49
10606;BME280;5350;42.698;23.148;2022-10-31T02:10:21;94110.53;;;14.30;72.69
10606;BME280;5350;42.698;23.148;2022-10-31T02:12:50;94109.16;;;14.32;72.59
10606;BME280;5350;42.698;23.148;2022-10-31T02:15:18;94111.19;;;14.35;73.00
10606;BME280;5350;42.698;23.148;2022-10-31T02:17:45;94117.56;;;14.34;73.34
10606;BME280;5350;42.698;23.148;2022-10-31T02:20:15;94124.84;;;14.29;74.34
10606;BME280;5350;42.698;23.148;2022-10-31T02:23:08;94117.56;;;14.21;75.20
10606;BME280;5350;42.698;23.148;2022-10-31T02:25:51;94126.72;;;14.28;74.37
10606;BME280;5350;42.698;23.148;2022-10-31T02:28:38;94125.41;;;14.26;75.17
10606;BME280;5350;42.698;23.148;2022-10-31T02:31:20;94127.97;;;14.31;75.06
10606;BME280;5350;42.698;23.148;2022-10-31T02:33:52;94124.84;;;14.29;76.04
10606;BME280;5350;42.698;23.148;2022-10-31T02:36:24;94130.72;;;14.26;76.16
10606;BME280;5350;42.698;23.148;2022-10-31T02:39:02;94132.78;;;14.29;75.84
10606;BME280;5350;42.698;23.148;2022-10-31T02:41:39;94118.28;;;14.13;74.99
10606;BME280;5350;42.698;23.148;2022-10-31T02:44:16;94138.94;;;14.38;75.77
10606;BME280;5350;42.698;23.148;2022-10-31T02:46:49;94138.75;;;14.34;77.18
10606;BME280;5350;42.698;23.148;2022-10-31T02:49:22;94136.00;;;14.26;77.13
10606;BME280;5350;42.698;23.148;2022-10-31T02:51:50;94146.88;;;14.24;76.31
10606;BME280;5350;42.698;23.148;2022-10-31T02:54:19;94148.25;;;14.22;76.43
10606;BME280;5350;42.698;23.148;2022-10-31T02:56:48;94139.72;;;14.25;76.28
10606;BME280;5350;42.698;23.148;2022-10-31T02:59:17;94149.22;;;14.26;77.16
10606;BME280;5350;42.698;23.148;2022-10-31T03:02:07;94155.19;;;14.45;75.86
10606;BME280;5350;42.698;23.148;2022-10-31T03:07:53;94153.72;;;14.25;78.03
10606;BME280;5350;42.698;23.148;2022-10-31T03:10:30;94152.59;;;14.18;78.79
10606;BME280;5350;42.698;23.148;2022-10-31T03:13:06;94148.75;;;14.10;79.55
10606;BME280;5350;42.698;23.148;2022-10-31T03:15:37;94147.22;;;14.09;80.22
10606;BME280;5350;42.698;23.148;2022-10-31T03:18:08;94147.63;;;14.03;80.00
10606;BME280;5350;42.698;23.148;2022-10-31T03:20:39;94158.41;;;13.93;80.38
10606;BME280;5350;42.698;23.148;2022-10-31T03:23:11;94162.72;;;13.89;81.86
10606;BME280;5350;42.698;23.148;2022-10-31T03:25:40;94165.66;;;13.74;82.42
10606;BME280;5350;42.698;23.148;2022-10-31T03:28:10;94153.91;;;13.52;82.74
10606;BME280;5350;42.698;23.148;2022-10-31T03:30:41;94168.03;;;13.61;83.47
10606;BME280;5350;42.698;23.148;2022-10-31T03:33:15;94157.44;;;13.34;84.35
10606;BME280;5350;42.698;23.148;2022-10-31T03:35:45;94153.34;;;13.55;83.88
10606;BME280;5350;42.698;23.148;2022-10-31T03:38:13;94166.63;;;13.23;86.07
10606;BME280;5350;42.698;23.148;2022-10-31T03:40:43;94166.84;;;13.40;85.38
10606;BME280;5350;42.698;23.148;2022-10-31T03:43:16;94172.91;;;13.27;85.83
10606;BME280;5350;42.698;23.148;2022-10-31T03:45:46;94172.50;;;13.20;85.87
10606;BME280;5350;42.698;23.148;2022-10-31T03:48:16;94164.66;;;13.15;86.85
10606;BME280;5350;42.698;23.148;2022-10-31T03:50:51;94176.59;;;13.13;87.77
10606;BME280;5350;42.698;23.148;2022-10-31T03:53:26;94177.59;;;12.98;89.51
10606;BME280;5350;42.698;23.148;2022-10-31T03:56:00;94182.81;;;13.03;89.18
10606;BME280;5350;42.698;23.148;2022-10-31T03:58:30;94174.88;;;13.03;88.93
10606;BME280;5350;42.698;23.148;2022-10-31T04:01:04;94188.94;;;12.99;89.88
10606;BME280;5350;42.698;23.148;2022-10-31T04:03:35;94183.59;;;13.04;89.73
10606;BME280;5350;42.698;23.148;2022-10-31T04:06:05;94187.59;;;13.01;89.99
10606;BME280;5350;42.698;23.148;2022-10-31T04:08:38;94116.47;;;12.59;89.98
10606;BME280;5350;42.698;23.148;2022-10-31T04:11:07;94184.63;;;13.08;91.00
10606;BME280;5350;42.698;23.148;2022-10-31T04:13:37;94187.41;;;12.79;94.24
10606;BME280;5350;42.698;23.148;2022-10-31T04:16:07;94179.78;;;12.77;94.17
10606;BME280;5350;42.698;23.148;2022-10-31T04:18:35;94182.72;;;12.76;94.63
10606;BME280;5350;42.698;23.148;2022-10-31T04:21:04;94190.78;;;12.84;93.39
10606;BME280;5350;42.698;23.148;2022-10-31T04:23:32;94181.69;;;12.91;92.22
10606;BME280;5350;42.698;23.148;2022-10-31T04:25:59;94198.56;;;12.76;94.93
10606;BME280;5350;42.698;23.148;2022-10-31T04:28:26;94189.53;;;12.63;95.42
10606;BME280;5350;42.698;23.148;2022-10-31T04:30:53;94191.69;;;12.75;95.37
10606;BME280;5350;42.698;23.148;2022-10-31T04:33:20;94202.19;;;12.80;95.68
10606;BME280;5350;42.698;23.148;2022-10-31T04:35:48;94184.91;;;12.88;94.83
10606;BME280;5350;42.698;23.148;2022-10-31T04:38:15;94192.03;;;12.87;94.95
10606;BME280;5350;42.698;23.148;2022-10-31T04:40:41;94191.41;;;12.95;94.44
10606;BME280;5350;42.698;23.148;2022-10-31T04:43:08;94189.41;;;13.06;94.22
10606;BME280;5350;42.698;23.148;2022-10-31T04:45:35;94189.78;;;13.13;93.96
10606;BME280;5350;42.698;23.148;2022-10-31T04:48:01;94190.66;;;13.08;95.77
10606;BME280;5350;42.698;23.148;2022-10-31T04:50:28;94192.25;;;13.09;94.94
10606;BME280;5350;42.698;23.148;2022-10-31T04:52:56;94192.44;;;13.13;94.68
10606;BME280;5350;42.698;23.148;2022-10-31T04:55:23;94214.78;;;13.20;94.22
10606;BME280;5350;42.698;23.148;2022-10-31T04:57:49;94207.16;;;13.32;93.13
10606;BME280;5350;42.698;23.148;2022-10-31T05:00:19;94207.34;;;13.36;93.00
10606;BME280;5350;42.698;23.148;2022-10-31T05:02:47;94212.81;;;13.39;93.04
10606;BME280;5350;42.698;23.148;2022-10-31T05:05:15;94213.69;;;13.21;94.81
10606;BME280;5350;42.698;23.148;2022-10-31T05:07:43;94213.44;;;13.36;94.02
10606;BME280;5350;42.698;23.148;2022-10-31T05:10:13;94218.00;;;13.31;94.41
10606;BME280;5350;42.698;23.148;2022-10-31T05:12:45;94213.59;;;13.26;95.32
10606;BME280;5350;42.698;23.148;2022-10-31T05:15:12;94230.84;;;13.37;95.58
10606;BME280;5350;42.698;23.148;2022-10-31T05:17:39;94222.34;;;13.40;94.79
10606;BME280;5350;42.698;23.148;2022-10-31T05:20:06;94219.56;;;13.18;96.21
10606;BME280;5350;42.698;23.148;2022-10-31T05:22:33;94224.84;;;13.18;96.62
10606;BME280;5350;42.698;23.148;2022-10-31T05:25:00;94225.91;;;13.17;97.44
10606;BME280;5350;42.698;23.148;2022-10-31T05:27:28;94220.31;;;13.19;97.92
10606;BME280;5350;42.698;23.148;2022-10-31T05:29:55;94231.97;;;13.18;97.83
10606;BME280;5350;42.698;23.148;2022-10-31T05:32:21;94233.34;;;13.15;98.60
10606;BME280;5350;42.698;23.148;2022-10-31T05:34:48;94237.63;;;13.11;99.02
10606;BME280;5350;42.698;23.148;2022-10-31T05:37:15;94242.06;;;12.97;100.00
10606;BME280;5350;42.698;23.148;2022-10-31T05:39:41;94232.50;;;13.01;100.00
10606;BME280;5350;42.698;23.148;2022-10-31T05:42:08;94240.47;;;12.96;100.00
10606;BME280;5350;42.698;23.148;2022-10-31T05:44:36;94236.00;;;12.78;100.00
10606;BME280;5350;42.698;23.148;2022-10-31T05:47:03;94242.50;;;12.85;100.00
10606;BME280;5350;42.698;23.148;2022-10-31T05:49:29;94237.06;;;12.77;100.00
10606;BME280;5350;42.698;23.148;2022-10-31T05:51:56;94245.28;;;12.75;100.00
10606;BME280;5350;42.698;23.148;2022-10-31T05:54:23;94247.78;;;12.85;100.00
10606;BME280;5350;42.698;23.148;2022-10-31T05:56:49;94245.56;;;12.93;100.00
10606;BME280;5350;42.698;23.148;2022-10-31T05:59:16;94245.84;;;12.91;100.00
10606;BME280;5350;42.698;23.148;2022-10-31T06:01:44;94243.31;;;13.00;100.00
10606;BME280;5350;42.698;23.148;2022-10-31T06:04:11;94252.03;;;13.00;100.00
10606;BME280;5350;42.698;23.148;2022-10-31T06:06:37;94256.19;;;13.06;100.00
10606;BME280;5350;42.698;23.148;2022-10-31T06:09:04;94249.75;;;13.12;100.00
10606;BME280;5350;42.698;23.148;2022-10-31T06:11:31;94265.47;;;13.22;100.00
10606;BME280;5350;42.698;23.148;2022-10-31T06:13:58;94271.94;;;13.30;100.00
10606;BME280;5350;42.698;23.148;2022-10-31T06:16:24;94267.25;;;13.40;99.22
10606;BME280;5350;42.698;23.148;2022-10-31T06:18:52;94266.28;;;13.50;98.49
10606;BME280;5350;42.698;23.148;2022-10-31T06:21:19;94271.69;;;13.58;97.02
10606;BME280;5350;42.698;23.148;2022-10-31T06:23:46;94283.75;;;13.64;96.74
10606;BME280;5350;42.698;23.148;2022-10-31T06:26:12;94275.13;;;13.73;96.58
10606;BME280;5350;42.698;23.148;2022-10-31T06:28:39;94278.69;;;13.82;96.02
10606;BME280;5350;42.698;23.148;2022-10-31T06:31:06;94282.41;;;13.94;94.61
10606;BME280;5350;42.698;23.148;2022-10-31T06:33:33;94279.47;;;13.96;94.69
10606;BME280;5350;42.698;23.148;2022-10-31T06:36:01;94284.84;;;14.04;94.72
10606;BME280;5350;42.698;23.148;2022-10-31T06:38:28;94283.97;;;14.09;94.77
10606;BME280;5350;42.698;23.148;2022-10-31T06:40:55;94289.38;;;14.17;94.69
10606;BME280;5350;42.698;23.148;2022-10-31T06:43:21;94283.09;;;14.27;94.45
10606;BME280;5350;42.698;23.148;2022-10-31T06:45:48;94288.97;;;14.37;93.37
10606;BME280;5350;42.698;23.148;2022-10-31T06:48:15;94283.59;;;14.43;93.19
10606;BME280;5350;42.698;23.148;2022-10-31T06:50:41;94288.38;;;14.54;92.50
10606;BME280;5350;42.698;23.148;2022-10-31T06:53:10;94290.03;;;14.64;91.62
10606;BME280;5350;42.698;23.148;2022-10-31T06:55:36;94295.91;;;14.74;91.88
10606;BME280;5350;42.698;23.148;2022-10-31T06:58:03;94293.50;;;14.86;90.80
10606;BME280;5350;42.698;23.148;2022-10-31T07:00:30;94298.41;;;14.93;89.98
10606;BME280;5350;42.698;23.148;2022-10-31T07:02:59;94294.44;;;15.04;89.76
10606;BME280;5350;42.698;23.148;2022-10-31T07:05:26;94301.59;;;15.03;89.83
10606;BME280;5350;42.698;23.148;2022-10-31T07:07:54;94299.84;;;15.21;89.28
10606;BME280;5350;42.698;23.148;2022-10-31T07:10:23;94294.94;;;15.28;88.05
10606;BME280;5350;42.698;23.148;2022-10-31T07:12:54;94296.06;;;15.36;87.21
10606;BME280;5350;42.698;23.148;2022-10-31T07:15:21;94305.53;;;15.50;84.03
10606;BME280;5350;42.698;23.148;2022-10-31T07:17:48;94310.56;;;15.52;83.68
10606;BME280;5350;42.698;23.148;2022-10-31T07:20:15;94309.09;;;15.68;81.61
10606;BME280;5350;42.698;23.148;2022-10-31T07:22:41;94301.44;;;15.66;81.10
10606;BME280;5350;42.698;23.148;2022-10-31T07:25:08;94299.66;;;15.84;79.49
10606;BME280;5350;42.698;23.148;2022-10-31T07:27:37;94304.09;;;15.97;78.68
10606;BME280;5350;42.698;23.148;2022-10-31T07:30:05;94297.09;;;16.01;77.64
10606;BME280;5350;42.698;23.148;2022-10-31T07:32:39;94299.34;;;16.16;78.73
10606;BME280;5350;42.698;23.148;2022-10-31T07:35:07;94299.06;;;16.26;76.84
10606;BME280;5350;42.698;23.148;2022-10-31T07:37:34;94292.88;;;16.39;75.50
10606;BME280;5350;42.698;23.148;2022-10-31T07:40:01;94290.25;;;16.56;75.09
10606;BME280;5350;42.698;23.148;2022-10-31T07:42:28;94289.81;;;16.71;73.06
10606;BME280;5350;42.698;23.148;2022-10-31T07:44:56;94284.69;;;16.84;72.65
10606;BME280;5350;42.698;23.148;2022-10-31T07:47:22;94281.41;;;16.87;72.75
10606;BME280;5350;42.698;23.148;2022-10-31T07:49:49;94285.81;;;17.00;72.64
10606;BME280;5350;42.698;23.148;2022-10-31T07:52:16;94287.50;;;17.13;72.74
10606;BME280;5350;42.698;23.148;2022-10-31T07:54:42;94279.84;;;17.28;71.99
10606;BME280;5350;42.698;23.148;2022-10-31T07:57:09;94281.25;;;17.43;71.04
10606;BME280;5350;42.698;23.148;2022-10-31T07:59:36;94283.28;;;17.54;69.28
10606;BME280;5350;42.698;23.148;2022-10-31T08:02:04;94288.41;;;17.77;68.46
10606;BME280;5350;42.698;23.148;2022-10-31T08:04:30;94285.25;;;17.92;67.90
10606;BME280;5350;42.698;23.148;2022-10-31T08:06:57;94288.00;;;18.04;66.29
10606;BME280;5350;42.698;23.148;2022-10-31T08:09:24;94288.25;;;18.19;66.45
10606;BME280;5350;42.698;23.148;2022-10-31T08:11:51;94285.69;;;18.31;65.65
10606;BME280;5350;42.698;23.148;2022-10-31T08:14:18;94273.63;;;18.34;64.61
10606;BME280;5350;42.698;23.148;2022-10-31T08:16:45;94285.84;;;18.44;64.74
10606;BME280;5350;42.698;23.148;2022-10-31T08:19:13;94284.69;;;18.53;64.33
10606;BME280;5350;42.698;23.148;2022-10-31T08:21:40;94284.00;;;18.65;63.41
10606;BME280;5350;42.698;23.148;2022-10-31T08:24:07;94287.38;;;18.74;64.73
10606;BME280;5350;42.698;23.148;2022-10-31T08:26:34;94281.75;;;18.75;64.02
10606;BME280;5350;42.698;23.148;2022-10-31T08:29:00;94290.31;;;18.81;64.48
10606;BME280;5350;42.698;23.148;2022-10-31T08:31:28;94296.09;;;18.83;64.36
10606;BME280;5350;42.698;23.148;2022-10-31T08:33:55;94294.94;;;18.92;64.47
10606;BME280;5350;42.698;23.148;2022-10-31T08:36:23;94288.63;;;19.17;63.32
10606;BME280;5350;42.698;23.148;2022-10-31T08:38:50;94291.13;;;19.43;60.37
10606;BME280;5350;42.698;23.148;2022-10-31T08:41:16;94288.81;;;19.54;59.62
10606;BME280;5350;42.698;23.148;2022-10-31T08:43:43;94281.59;;;19.54;59.92
10606;BME280;5350;42.698;23.148;2022-10-31T08:46:10;94274.66;;;19.74;60.29
10606;BME280;5350;42.698;23.148;2022-10-31T08:48:37;94291.19;;;20.00;57.49
10606;BME280;5350;42.698;23.148;2022-10-31T08:51:04;94284.41;;;20.15;57.18
10606;BME280;5350;42.698;23.148;2022-10-31T08:53:32;94280.00;;;20.31;56.57
10606;BME280;5350;42.698;23.148;2022-10-31T08:55:59;94286.91;;;20.56;54.82
10606;BME280;5350;42.698;23.148;2022-10-31T08:58:25;94283.66;;;20.75;53.58
10606;BME280;5350;42.698;23.148;2022-10-31T09:00:53;94283.59;;;20.99;52.67
10606;BME280;5350;42.698;23.148;2022-10-31T09:03:24;94283.50;;;21.07;54.55
10606;BME280;5350;42.698;23.148;2022-10-31T09:05:55;94288.69;;;21.28;54.84
10606;BME280;5350;42.698;23.148;2022-10-31T09:08:22;94294.31;;;21.51;49.87
10606;BME280;5350;42.698;23.148;2022-10-31T09:10:51;94286.72;;;21.53;50.34
10606;BME280;5350;42.698;23.148;2022-10-31T09:13:19;94284.81;;;21.53;49.30
10606;BME280;5350;42.698;23.148;2022-10-31T09:15:48;94283.41;;;21.43;49.92
10606;BME280;5350;42.698;23.148;2022-10-31T09:18:16;94280.63;;;21.68;51.76
10606;BME280;5350;42.698;23.148;2022-10-31T09:20:45;94279.75;;;21.91;48.86
10606;BME280;5350;42.698;23.148;2022-10-31T09:23:13;94273.09;;;22.01;48.25
10606;BME280;5350;42.698;23.148;2022-10-31T09:25:40;94274.34;;;22.19;47.29
10606;BME280;5350;42.698;23.148;2022-10-31T09:28:10;94278.84;;;22.15;46.53
10606;BME280;5350;42.698;23.148;2022-10-31T09:30:38;94285.41;;;22.33;46.14
10606;BME280;5350;42.698;23.148;2022-10-31T09:33:06;94285.31;;;22.30;45.73
10606;BME280;5350;42.698;23.148;2022-10-31T09:35:33;94280.22;;;22.40;45.87
10606;BME280;5350;42.698;23.148;2022-10-31T09:38:01;94277.53;;;22.56;44.06
10606;BME280;5350;42.698;23.148;2022-10-31T09:40:32;94282.38;;;22.66;44.23
10606;BME280;5350;42.698;23.148;2022-10-31T09:43:07;94279.81;;;22.88;45.41
10606;BME280;5350;42.698;23.148;2022-10-31T09:45:44;94266.19;;;23.13;43.60
10606;BME280;5350;42.698;23.148;2022-10-31T09:51:05;94267.88;;;23.36;45.25
10606;BME280;5350;42.698;23.148;2022-10-31T09:53:38;94262.03;;;23.53;43.28
10606;BME280;5350;42.698;23.148;2022-10-31T09:56:08;94264.47;;;23.58;42.44
10606;BME280;5350;42.698;23.148;2022-10-31T09:58:41;94267.03;;;23.74;42.25
10606;BME280;5350;42.698;23.148;2022-10-31T10:01:19;94266.91;;;23.86;42.17
10606;BME280;5350;42.698;23.148;2022-10-31T10:03:50;94270.84;;;24.11;41.67
10606;BME280;5350;42.698;23.148;2022-10-31T10:06:22;94255.38;;;23.86;41.60
10606;BME280;5350;42.698;23.148;2022-10-31T10:08:50;94249.63;;;24.06;41.80
10606;BME280;5350;42.698;23.148;2022-10-31T10:11:34;94258.06;;;24.27;41.25
10606;BME280;5350;42.698;23.148;2022-10-31T10:14:16;94260.19;;;24.64;42.10
10606;BME280;5350;42.698;23.148;2022-10-31T10:17:02;94260.50;;;24.85;40.00
10606;BME280;5350;42.698;23.148;2022-10-31T10:19:45;94258.63;;;25.15;38.86
10606;BME280;5350;42.698;23.148;2022-10-31T10:22:19;94252.31;;;25.33;38.50
10606;BME280;5350;42.698;23.148;2022-10-31T10:24:59;94253.09;;;25.34;38.11
10606;BME280;5350;42.698;23.148;2022-10-31T10:27:38;94244.91;;;25.53;37.93
10606;BME280;5350;42.698;23.148;2022-10-31T10:30:14;94235.94;;;25.46;37.29
10606;BME280;5350;42.698;23.148;2022-10-31T10:32:45;94241.72;;;25.44;38.76
10606;BME280;5350;42.698;23.148;2022-10-31T10:35:20;94236.81;;;25.53;38.75
10606;BME280;5350;42.698;23.148;2022-10-31T10:37:50;94228.59;;;25.76;38.12
10606;BME280;5350;42.698;23.148;2022-10-31T10:40:21;94224.22;;;26.01;36.71
10606;BME280;5350;42.698;23.148;2022-10-31T10:42:56;94220.84;;;25.74;37.18
10606;BME280;5350;42.698;23.148;2022-10-31T10:45:50;94217.94;;;25.86;36.63
10606;BME280;5350;42.698;23.148;2022-10-31T10:48:42;94223.44;;;26.00;36.07
10606;BME280;5350;42.698;23.148;2022-10-31T10:51:18;94213.38;;;25.97;36.74
10606;BME280;5350;42.698;23.148;2022-10-31T10:53:55;94207.41;;;26.11;35.60
10606;BME280;5350;42.698;23.148;2022-10-31T10:56:39;94209.88;;;25.93;35.86
10606;BME280;5350;42.698;23.148;2022-10-31T10:59:10;94204.16;;;25.95;36.88
10606;BME280;5350;42.698;23.148;2022-10-31T11:01:39;94209.34;;;26.14;36.35
10606;BME280;5350;42.698;23.148;2022-10-31T11:04:21;94212.50;;;26.23;36.06
10606;BME280;5350;42.698;23.148;2022-10-31T11:06:57;94207.75;;;26.57;34.58
10606;BME280;5350;42.698;23.148;2022-10-31T11:09:24;94199.56;;;26.43;36.07
10606;BME280;5350;42.698;23.148;2022-10-31T11:11:51;94200.78;;;26.56;34.37
10606;BME280;5350;42.698;23.148;2022-10-31T11:14:18;94198.28;;;26.77;34.09
10606;BME280;5350;42.698;23.148;2022-10-31T11:16:47;94196.53;;;27.06;33.79
10606;BME280;5350;42.698;23.148;2022-10-31T11:19:18;94187.34;;;27.24;32.78
10606;BME280;5350;42.698;23.148;2022-10-31T11:21:46;94182.25;;;27.05;32.92
10606;BME280;5350;42.698;23.148;2022-10-31T11:24:16;94186.28;;;26.74;33.77
10606;BME280;5350;42.698;23.148;2022-10-31T11:26:45;94182.38;;;26.65;34.32
10606;BME280;5350;42.698;23.148;2022-10-31T11:29:14;94180.59;;;26.86;33.94
10606;BME280;5350;42.698;23.148;2022-10-31T11:31:43;94183.03;;;27.13;33.55
10606;BME280;5350;42.698;23.148;2022-10-31T11:34:18;94187.97;;;26.93;33.06
10606;BME280;5350;42.698;23.148;2022-10-31T11:36:48;94185.53;;;26.74;33.99
10606;BME280;5350;42.698;23.148;2022-10-31T11:39:18;94177.13;;;26.86;33.10
10606;BME280;5350;42.698;23.148;2022-10-31T11:41:46;94175.66;;;26.99;32.78
10606;BME280;5350;42.698;23.148;2022-10-31T11:44:16;94173.06;;;27.20;32.88
10606;BME280;5350;42.698;23.148;2022-10-31T11:46:46;94179.69;;;27.40;32.23
10606;BME280;5350;42.698;23.148;2022-10-31T11:49:16;94165.47;;;27.57;32.64
10606;BME280;5350;42.698;23.148;2022-10-31T11:51:49;94169.75;;;27.80;33.09
10606;BME280;5350;42.698;23.148;2022-10-31T11:54:22;94169.38;;;27.92;33.07
10606;BME280;5350;42.698;23.148;2022-10-31T11:56:50;94169.81;;;28.22;31.79
10606;BME280;5350;42.698;23.148;2022-10-31T11:59:22;94163.63;;;28.35;31.99
10606;BME280;5350;42.698;23.148;2022-10-31T12:01:51;94155.91;;;28.34;31.18
10606;BME280;5350;42.698;23.148;2022-10-31T12:04:18;94157.47;;;28.14;31.66
10606;BME280;5350;42.698;23.148;2022-10-31T12:06:52;94153.56;;;28.50;31.36
10606;BME280;5350;42.698;23.148;2022-10-31T12:09:21;94151.97;;;28.84;31.92
10606;BME280;5350;42.698;23.148;2022-10-31T12:12:03;94150.47;;;28.52;30.51
10606;BME280;5350;42.698;23.148;2022-10-31T12:14:36;94153.59;;;27.97;30.84
10606;BME280;5350;42.698;23.148;2022-10-31T12:17:13;94141.59;;;27.98;31.24
10606;BME280;5350;42.698;23.148;2022-10-31T12:19:45;94145.03;;;27.92;31.43
10606;BME280;5350;42.698;23.148;2022-10-31T12:22:20;94143.94;;;28.17;31.33
10606;BME280;5350;42.698;23.148;2022-10-31T12:25:21;94147.41;;;28.32;30.83
10606;BME280;5350;42.698;23.148;2022-10-31T12:28:06;94145.06;;;28.48;31.44
10606;BME280;5350;42.698;23.148;2022-10-31T12:30:49;94149.31;;;28.63;30.50
10606;BME280;5350;42.698;23.148;2022-10-31T12:33:28;94150.81;;;28.82;30.45
10606;BME280;5350;42.698;23.148;2022-10-31T12:36:18;94136.91;;;28.73;30.61
10606;BME280;5350;42.698;23.148;2022-10-31T12:39:02;94134.16;;;28.94;30.22
10606;BME280;5350;42.698;23.148;2022-10-31T12:41:45;94138.78;;;28.97;29.80
10606;BME280;5350;42.698;23.148;2022-10-31T12:44:24;94140.06;;;28.29;31.12
10606;BME280;5350;42.698;23.148;2022-10-31T12:47:05;94135.03;;;28.31;31.45
10606;BME280;5350;42.698;23.148;2022-10-31T12:49:44;94138.13;;;27.98;31.11
10606;BME280;5350;42.698;23.148;2022-10-31T12:52:35;94139.31;;;27.97;31.31
10606;BME280;5350;42.698;23.148;2022-10-31T12:55:19;94140.41;;;27.85;31.43
10606;BME280;5350;42.698;23.148;2022-10-31T12:57:54;94131.06;;;27.40;32.08
10606;BME280;5350;42.698;23.148;2022-10-31T13:00:26;94134.78;;;27.04;32.92
10606;BME280;5350;42.698;23.148;2022-10-31T13:02:56;94132.53;;;27.20;33.47
10606;BME280;5350;42.698;23.148;2022-10-31T13:05:27;94133.44;;;27.63;32.19
10606;BME280;5350;42.698;23.148;2022-10-31T13:07:58;94136.19;;;28.09;32.20
10606;BME280;5350;42.698;23.148;2022-10-31T13:10:31;94130.38;;;28.60;30.26
10606;BME280;5350;42.698;23.148;2022-10-31T13:13:05;94138.03;;;28.89;30.48
10606;BME280;5350;42.698;23.148;2022-10-31T13:15:39;94133.63;;;29.34;30.28
10606;BME280;5350;42.698;23.148;2022-10-31T13:18:24;94131.47;;;29.77;29.77
10606;BME280;5350;42.698;23.148;2022-10-31T13:20:54;94132.13;;;29.95;29.59
10606;BME280;5350;42.698;23.148;2022-10-31T13:23:26;94132.00;;;30.09;28.40